Brockton, MT (59213)

9:04 AM MDT on July 24, 2016 (GMT -0600)
Homestead, MT | | Change Station

Elev 1969 ft 48.42 °N, 104.54 °W | Updated 4 minutes ago

Clear
Clear
69.9 °F
Feels Like 69.9 °F
N
3.0
Wind Variable Wind from SW
Gusts 6.0 mph

Today
High -- | Low -- °F
--% Chance of Precip.
Yesterday
High -- | Low -- °F
Precip. -- in
Pressure 30.04 in
Visibility 10.0 miles
Clouds Clear
Dew Point 59 °F
Humidity 69%
Rainfall 0.00 in
Snow Depth Not available.
5:25 AM 8:46 PM
Waning Gibbous, 75% visible
METAR KOLF 241453Z AUTO 00000KT 10SM CLR 21/11 A3006 RMK AO2 SLP172 T02110111 50006
Pressure 30.04 in
Visibility 10.0 miles
Clouds Clear
Dew Point 59 °F
Humidity 69%
Rainfall 0.00 in
Snow Depth Not available.
5:25 AM 8:46 PM
Waning Gibbous, 75% visible
METAR KOLF 241453Z AUTO 00000KT 10SM CLR 21/11 A3006 RMK AO2 SLP172 T02110111 50006

10-Day Weather Forecast

Almanac

Astronomy

Jul. 24, 2016 Rise Set
Actual Time
Civil Twilight
Nautical Twilight
Astronomical Twilight
Moon
Length of Visible Light
Length of Day
Tomorrow will be .
, % of the Moon is Illuminated

Today's Extremes

State Highs State Lows

Community

WunderPhotos

Upload Photos

1,927,073 photos uploaded!

WunderBlog® & News

Nearby

Air Quality

  Air Quality AQ Index Pollutant
Not available.

Snow Depth

Station Depth Elevation

Earthquake Activity

City Distance Mag. Time & Date
Minimum magnitude displayed is 2.5.

Coastal Water Temperatures

Place Temperature

Stations

Nearby Weather Stations

Station Location Temp. Windchill Dew Point Humidity Wind Precip. Elev Updated Type
                   

Watches & Warnings

There are currently no watches in effect.